Americus, Missouri
Current Conditions -  °F | °C
As of 12:15 PM on Wednesday 26 Nov 2014 (Local Time) from KFYG Reporting Station
Moderate Snow Moderate Snow  
Wind Chill: -3°   Ceiling: 200
Heat Index:   Visibility: 0.5mi
Dew Point:   Wind: 6mph
Humidity: 100%   Direction: 120°ESE
Pressure: 29.96"   Gusts: NA
Location:  38.7604°N, 91.5317°W
Report Text: KFYG 261815Z AUTO 12005KT 1/2SM SN BKN002 00/00 A2996 RMK AO2 P0009
Loading
Personal Weather Stations






























Interactive Weather Map New forecast layout! Learn more

10-Day Weather Forecast

Advertisements
Track Severe Weather on mobile